Weather History for KMQS - March, 2013

Change the Weather History Date:

Wednesday, March 13, 2013

  Actual Average (KLNS) Record (KLNS)
Temperature  
Mean Temperature 40 °F -  
Max Temperature 48 °F 50 °F 81 °F (1990)
Min Temperature 32 °F 29 °F 19 °F (1989)
Degree Days  
Heating Degree Days 25    
Moisture  
Dew Point 28 °F    
Average Humidity 65    
Maximum Humidity 87    
Minimum Humidity 39    
Precipitation  
Precipitation 0.00 in - - ()
Sea Level Pressure  
Sea Level Pressure 29.92 in    
Wind  
Wind Speed 10 mph (WNW)    
Max Wind Speed 22 mph    
Max Gust Speed 32 mph    
Visibility 10 miles    
Events      
Averages and records for this station are not official NWS values.
T = Trace of Precipitation, MM = Missing Value Source: NWS Daily Summary

Daily Weather History Graph

Daily Weather History Graph

Search for Another Location

Airport or City:

Trip Planner

Search our weather history database for the weather conditions in past years. The results will help you decide how hot, cold, wet, or windy it might be!

Date:

Astronomy

Mar. 13, 2013 Rise Set
Actual Time 7:17 AM EDT 7:08 PM EDT
Civil Twilight 6:50 AM EDT 7:35 PM EDT
Nautical Twilight 6:19 AM EDT 8:06 PM EDT
Astronomical Twilight 5:47 AM EDT 8:38 PM EDT
Moon 7:56 AM EDT (3/13) 9:22 PM EDT (3/13)
Length of Visible Light 12h 44m
Length of Day
11h 50m
Waxing Crescent, 4% of the Moon is Illuminated
Mar 13
Waxing Crescent
Mar 19
First Quarter
Mar 27
Full
Apr 3
Last Quarter
Apr 10
New

Hourly Weather History & Observations

Time (EDT) Temp. Windchill Dew Point Humidity Pressure Visibility Wind Dir Wind Speed Gust Speed Precip Events Conditions
12:15 AM 41.0 °F 33.5 °F 32.0 °F 70% 29.92 in 10.0 mi NW 13.8 mph 20.7 mph N/A   Overcast
12:35 AM 41.0 °F 33.9 °F 32.0 °F 70% 29.93 in 10.0 mi NW 12.7 mph 19.6 mph N/A   Overcast
12:55 AM 39.2 °F 32.5 °F 32.0 °F 75% 29.93 in 10.0 mi NW 10.4 mph - N/A   Overcast
1:15 AM 39.2 °F 31.6 °F 32.0 °F 75% 29.93 in 10.0 mi NW 12.7 mph - N/A   Overcast
1:35 AM 39.2 °F 32.0 °F 32.0 °F 75% 29.93 in 10.0 mi NNW 11.5 mph 18.4 mph N/A   Mostly Cloudy
1:55 AM 39.2 °F 31.6 °F 30.2 °F 70% 29.92 in 10.0 mi NNW 12.7 mph - N/A   Scattered Clouds
2:15 AM 39.2 °F 33.6 °F 30.2 °F 70% 29.93 in 10.0 mi NW 8.1 mph - N/A   Clear
2:35 AM 37.4 °F 32.1 °F 30.2 °F 75% 29.92 in 10.0 mi NW 6.9 mph - N/A   Clear
2:55 AM 37.4 °F 32.1 °F 30.2 °F 75% 29.93 in 10.0 mi NW 6.9 mph - N/A   Clear
3:15 AM 37.4 °F 31.4 °F 30.2 °F 75% 29.92 in 10.0 mi NW 8.1 mph - N/A   Clear
3:35 AM 37.4 °F 32.1 °F 28.4 °F 70% 29.92 in 10.0 mi NNW 6.9 mph - N/A   Clear
3:55 AM 37.4 °F 31.4 °F 28.4 °F 70% 29.91 in 10.0 mi NW 8.1 mph - N/A   Clear
4:15 AM 37.4 °F 32.1 °F 28.4 °F 70% 29.91 in 10.0 mi NW 6.9 mph - N/A   Mostly Cloudy
4:35 AM 37.4 °F 32.1 °F 28.4 °F 70% 29.91 in 10.0 mi NW 6.9 mph - N/A   Mostly Cloudy
5:15 AM 37.4 °F 34.9 °F 30.2 °F 75% 29.92 in 10.0 mi West 3.5 mph - N/A   Mostly Cloudy
5:35 AM 37.4 °F - 30.2 °F 75% 29.92 in 10.0 mi Calm Calm - N/A   Overcast
5:55 AM 37.4 °F - 30.2 °F 75% 29.92 in 10.0 mi Calm Calm - N/A   Scattered Clouds
6:15 AM 35.6 °F 32.8 °F 30.2 °F 81% 29.93 in 10.0 mi SW 3.5 mph - N/A   Clear
6:35 AM 35.6 °F 32.8 °F 30.2 °F 81% 29.93 in 10.0 mi SW 3.5 mph - N/A   Clear
6:55 AM 35.6 °F 32.8 °F 28.4 °F 75% 29.93 in 10.0 mi WSW 3.5 mph - N/A   Clear
7:15 AM 32.0 °F 28.7 °F 28.4 °F 87% 29.93 in 10.0 mi West 3.5 mph - N/A   Clear
7:35 AM 35.6 °F - 26.6 °F 70% 29.93 in 10.0 mi Calm Calm - N/A   Clear
7:55 AM 33.8 °F - 28.4 °F 81% 29.94 in 10.0 mi Calm Calm - N/A   Clear
8:15 AM 33.8 °F - 30.2 °F 87% 29.93 in 10.0 mi Calm Calm - N/A   Clear
8:35 AM 35.6 °F - 30.2 °F 81% 29.94 in 10.0 mi Calm Calm - N/A   Clear
8:55 AM 37.4 °F 34.9 °F 28.4 °F 70% 29.94 in 10.0 mi West 3.5 mph - N/A   Clear
9:15 AM 39.2 °F 37.0 °F 28.4 °F 65% 29.94 in 10.0 mi WSW 3.5 mph - N/A   Clear
9:35 AM 39.2 °F 35.9 °F 28.4 °F 65% 29.94 in 10.0 mi West 4.6 mph - N/A   Clear
9:55 AM 42.8 °F 38.6 °F 28.4 °F 57% 29.94 in 10.0 mi West 6.9 mph - N/A   Clear
10:15 AM 42.8 °F 37.5 °F 28.4 °F 57% 29.94 in 10.0 mi West 9.2 mph - N/A   Clear
10:35 AM 42.8 °F 38.0 °F 28.4 °F 57% 29.94 in 10.0 mi WSW 8.1 mph 16.1 mph N/A   Clear
10:55 AM 44.6 °F 38.8 °F 26.6 °F 49% 29.93 in 10.0 mi WNW 11.5 mph - N/A   Clear
11:15 AM 44.6 °F 39.2 °F 28.4 °F 53% 29.92 in 10.0 mi WNW 10.4 mph - N/A   Clear
11:35 AM 44.6 °F 40.7 °F 28.4 °F 53% 29.92 in 10.0 mi West 6.9 mph - N/A   Clear
11:55 AM 44.6 °F 40.2 °F 28.4 °F 53% 29.92 in 10.0 mi WNW 8.1 mph 19.6 mph N/A   Scattered Clouds
12:15 PM 44.6 °F 39.2 °F 28.4 °F 53% 29.92 in 10.0 mi West 10.4 mph 19.6 mph N/A   Scattered Clouds
12:35 PM 46.4 °F 41.9 °F 26.6 °F 46% 29.90 in 10.0 mi West 9.2 mph - N/A   Partly Cloudy
12:55 PM 46.4 °F 42.4 °F 26.6 °F 46% 29.90 in 10.0 mi West 8.1 mph - N/A   Partly Cloudy
1:15 PM 44.6 °F 38.4 °F 26.6 °F 49% 29.90 in 10.0 mi West 12.7 mph - N/A   Mostly Cloudy
1:35 PM 48.2 °F - 26.6 °F 43% 29.89 in 10.0 mi West 13.8 mph 19.6 mph N/A   Mostly Cloudy
1:55 PM 46.4 °F 40.1 °F 26.6 °F 46% 29.88 in 10.0 mi West 15.0 mph 20.7 mph N/A   Scattered Clouds
2:15 PM 46.4 °F 39.2 °F 28.4 °F 50% 29.88 in 10.0 mi NW 18.4 mph 23.0 mph N/A   Mostly Cloudy
2:35 PM 44.6 °F 39.7 °F 28.4 °F 53% 29.87 in 10.0 mi West 9.2 mph - N/A   Partly Cloudy
2:55 PM 42.8 °F 36.6 °F 32.0 °F 66% 29.87 in 8.0 mi WNW 11.5 mph - N/A   Mostly Cloudy
3:15 PM 44.6 °F 38.4 °F 30.2 °F 57% 29.87 in 10.0 mi WNW 12.7 mph - N/A   Scattered Clouds
3:35 PM 39.2 °F 29.6 °F 32.0 °F 75% 29.88 in 10.0 mi WNW 19.6 mph 32.2 mph N/A   Mostly Cloudy
3:55 PM 41.0 °F 33.5 °F 33.8 °F 76% 29.88 in 10.0 mi WNW 13.8 mph 20.7 mph N/A   Mostly Cloudy
4:15 PM 42.8 °F 36.6 °F 33.8 °F 70% 29.87 in 10.0 mi WNW 11.5 mph - N/A   Partly Cloudy
4:35 PM 42.8 °F 36.2 °F 32.0 °F 66% 29.88 in 10.0 mi WNW 12.7 mph 21.9 mph N/A   Partly Cloudy
5:15 PM 42.8 °F 36.6 °F 30.2 °F 61% 29.88 in 10.0 mi WNW 11.5 mph 19.6 mph N/A   Partly Cloudy
5:35 PM 42.8 °F 36.6 °F 30.2 °F 61% 29.87 in 10.0 mi WNW 11.5 mph 17.3 mph N/A   Partly Cloudy
5:55 PM 44.6 °F 38.1 °F 21.2 °F 39% 29.88 in 10.0 mi WNW 13.8 mph 27.6 mph N/A   Clear
6:15 PM 42.8 °F 35.1 °F 23.0 °F 46% 29.89 in 10.0 mi NW 16.1 mph 21.9 mph N/A   Clear
6:35 PM 41.0 °F 33.5 °F 23.0 °F 49% 29.89 in 10.0 mi WNW 13.8 mph - N/A   Clear
6:55 PM 41.0 °F 33.1 °F 24.8 °F 53% 29.90 in 10.0 mi WNW 15.0 mph - N/A   Scattered Clouds
7:15 PM 39.2 °F 29.8 °F 28.4 °F 65% 29.91 in 10.0 mi NW 18.4 mph 31.1 mph N/A   Mostly Cloudy
7:35 PM 37.4 °F 29.3 °F 30.2 °F 75% 29.92 in 10.0 mi NW 12.7 mph 19.6 mph N/A   Scattered Clouds
7:55 PM 37.4 °F 29.8 °F 28.4 °F 70% 29.93 in 10.0 mi WNW 11.5 mph 17.3 mph N/A   Partly Cloudy
8:15 PM 37.4 °F 30.8 °F 28.4 °F 70% 29.93 in 10.0 mi NW 9.2 mph - N/A   Partly Cloudy
8:35 PM 37.4 °F 29.8 °F 28.4 °F 70% 29.94 in 10.0 mi NW 11.5 mph - N/A   Mostly Cloudy
8:55 PM 37.4 °F 28.5 °F 28.4 °F 70% 29.94 in 10.0 mi WNW 15.0 mph 19.6 mph N/A   Scattered Clouds
9:15 PM 37.4 °F 28.2 °F 28.4 °F 70% 29.95 in 10.0 mi WNW 16.1 mph 24.2 mph N/A   Mostly Cloudy
9:35 PM 37.4 °F 28.2 °F 26.6 °F 65% 29.96 in 10.0 mi NW 16.1 mph - N/A   Mostly Cloudy
9:55 PM 35.6 °F 26.2 °F 24.8 °F 65% 29.96 in 10.0 mi NW 15.0 mph 19.6 mph N/A   Scattered Clouds
10:15 PM 33.8 °F 23.5 °F 23.0 °F 65% 29.96 in 10.0 mi NW 16.1 mph 21.9 mph N/A   Clear
10:35 PM 33.8 °F 23.9 °F 23.0 °F 65% 29.97 in 10.0 mi NW 15.0 mph 21.9 mph N/A   Clear
10:55 PM 33.8 °F 22.5 °F 21.2 °F 60% 29.97 in 10.0 mi NW 19.6 mph 23.0 mph N/A   Clear
11:15 PM 33.8 °F 22.8 °F 21.2 °F 60% 29.97 in 10.0 mi WNW 18.4 mph - N/A   Clear
11:35 PM 33.8 °F 22.8 °F 21.2 °F 60% 29.98 in 10.0 mi WNW 18.4 mph 31.1 mph N/A   Clear
11:55 PM 32.0 °F 19.5 °F 17.6 °F 55% 29.98 in 10.0 mi NW 21.9 mph 28.8 mph N/A   Clear